createdAt,value
2019-03-10T00:02:06.574Z,100735.72
2019-03-10T00:04:36.220Z,100731.83
2019-03-10T00:07:05.960Z,100730.70
2019-03-10T00:09:35.868Z,100724.75
2019-03-10T00:12:05.693Z,100723.90
2019-03-10T00:14:35.437Z,100723.50
2019-03-10T00:17:05.182Z,100726.18
2019-03-10T00:19:36.708Z,100718.56
2019-03-10T00:22:06.970Z,100715.13
2019-03-10T00:24:36.746Z,100711.31
2019-03-10T00:27:06.477Z,100706.20
2019-03-10T00:29:36.164Z,100689.88
2019-03-10T00:32:05.829Z,100698.96
2019-03-10T00:34:35.487Z,100698.03
2019-03-10T00:37:05.307Z,100691.76
2019-03-10T00:39:54.360Z,100684.37
2019-03-10T00:43:09.975Z,100682.16
2019-03-10T00:46:39.030Z,100680.86
2019-03-10T00:49:32.529Z,100673.08
2019-03-10T00:52:06.045Z,100677.73
2019-03-10T00:54:35.700Z,100667.84
2019-03-10T00:57:05.614Z,100665.69
2019-03-10T00:59:35.440Z,100668.97
2019-03-10T01:02:05.207Z,100664.23
2019-03-10T01:04:35.207Z,100660.28
2019-03-10T01:07:05.236Z,100654.61
2019-03-10T01:09:35.173Z,100660.12
2019-03-10T01:12:04.928Z,100661.86
2019-03-10T01:14:35.054Z,100657.83
2019-03-10T01:17:05.319Z,100645.14
2019-03-10T01:19:36.649Z,100636.46
2019-03-10T01:22:06.408Z,100629.36
2019-03-10T01:24:36.133Z,100627.44
2019-03-10T01:27:05.822Z,100618.22
2019-03-10T01:29:35.502Z,100620.27
2019-03-10T01:32:46.158Z,100617.59
2019-03-10T01:35:18.980Z,100623.94
2019-03-10T01:37:48.656Z,100621.34
2019-03-10T01:40:18.315Z,100622.92
2019-03-10T01:42:47.983Z,100610.03
2019-03-10T01:45:17.909Z,100603.45
2019-03-10T01:47:47.579Z,100600.32
2019-03-10T01:50:17.247Z,100597.73
2019-03-10T01:52:47.168Z,100597.67
2019-03-10T01:55:16.897Z,100598.97
2019-03-10T01:57:46.564Z,100584.70
2019-03-10T02:00:17.036Z,100584.52
2019-03-10T02:02:47.025Z,100585.82
2019-03-10T02:05:16.763Z,100567.56
2019-03-10T02:07:46.416Z,100568.05
2019-03-10T02:10:17.063Z,100552.53
2019-03-10T02:12:46.721Z,100546.89
2019-03-10T02:15:16.619Z,100532.41
2019-03-10T02:17:46.364Z,100536.69
2019-03-10T02:20:17.393Z,100528.20
2019-03-10T02:22:47.286Z,100514.77
2019-03-10T02:25:16.949Z,100512.58
2019-03-10T02:27:46.608Z,100512.58
2019-03-10T02:30:18.525Z,100496.61
2019-03-10T02:32:48.238Z,100495.49
2019-03-10T02:35:17.927Z,100493.17
2019-03-10T02:37:47.940Z,100485.92
2019-03-10T02:40:17.639Z,100488.92
2019-03-10T02:42:47.540Z,100478.98
2019-03-10T02:45:17.215Z,100470.09
2019-03-10T02:47:46.878Z,100460.25
2019-03-10T02:50:16.852Z,100454.88
2019-03-10T02:52:46.551Z,100459.22
2019-03-10T02:55:16.212Z,100456.41
2019-03-10T02:57:46.120Z,100445.59
2019-03-10T03:00:16.183Z,100436.41
2019-03-10T03:02:46.103Z,100436.05
2019-03-10T03:05:15.764Z,100428.27
2019-03-10T03:07:45.446Z,100415.84
2019-03-10T03:10:15.931Z,100413.79
2019-03-10T03:12:45.643Z,100414.64
2019-03-10T03:15:16.709Z,100406.45
2019-03-10T03:17:46.451Z,100403.77
2019-03-10T03:20:17.708Z,100399.97
2019-03-10T03:22:47.347Z,100385.70
2019-03-10T03:25:17.026Z,100371.62
2019-03-10T03:27:46.695Z,100366.88
2019-03-10T03:30:16.882Z,100361.99
2019-03-10T03:32:46.719Z,100351.62
2019-03-10T03:35:46.764Z,100347.54
2019-03-10T03:38:17.887Z,100328.72
2019-03-10T03:40:50.953Z,100328.08
2019-03-10T03:43:20.605Z,100332.52
2019-03-10T03:45:50.279Z,100330.22
2019-03-10T03:48:20.027Z,100325.88
2019-03-10T03:50:50.020Z,100324.19
2019-03-10T03:53:20.691Z,100318.64
2019-03-10T03:55:50.342Z,100320.69
2019-03-10T03:58:20.262Z,100304.19
2019-03-10T04:00:53.770Z,100301.14
2019-03-10T04:03:23.431Z,100295.86
2019-03-10T04:05:53.131Z,100288.91
2019-03-10T04:08:22.797Z,100290.02
2019-03-10T04:10:52.460Z,100281.78
2019-03-10T04:13:22.413Z,100275.69
2019-03-10T04:15:52.358Z,100267.91
2019-03-10T04:18:22.027Z,100270.30
2019-03-10T04:20:51.698Z,100275.14
2019-03-10T04:23:22.320Z,100266.22
2019-03-10T04:25:51.999Z,100258.44
2019-03-10T04:28:21.683Z,100248.51
2019-03-10T04:30:51.340Z,100245.10
2019-03-10T04:33:21.008Z,100231.73
2019-03-10T04:35:50.689Z,100228.23
2019-03-10T04:38:20.360Z,100220.06
2019-03-10T04:40:50.250Z,100217.38
2019-03-10T04:43:19.914Z,100221.20
2019-03-10T04:45:49.576Z,100217.11
2019-03-10T04:48:19.239Z,100216.72
2019-03-10T04:50:48.911Z,100209.98
2019-03-10T04:53:18.810Z,100190.61
2019-03-10T04:56:16.653Z,100196.91
2019-03-10T04:58:49.333Z,100192.46
2019-03-10T05:01:19.448Z,100186.91
2019-03-10T05:03:49.095Z,100186.91
2019-03-10T05:06:18.845Z,100179.13
2019-03-10T05:08:49.697Z,100179.13
2019-03-10T05:11:19.600Z,100173.20
2019-03-10T05:13:49.815Z,100167.06
2019-03-10T05:16:19.474Z,100157.69
2019-03-10T05:21:36.536Z,100146.41
2019-03-10T05:24:13.315Z,100133.34
2019-03-10T05:26:42.990Z,100121.76
2019-03-10T05:29:13.632Z,100113.59
2019-03-10T05:31:43.298Z,100109.89
2019-03-10T05:34:12.975Z,100099.42
2019-03-10T05:36:42.631Z,100084.58
2019-03-10T05:39:12.549Z,100085.14
2019-03-10T05:41:42.217Z,100073.44
2019-03-10T05:44:13.061Z,100079.67
2019-03-10T05:46:42.711Z,100072.99
2019-03-10T05:49:12.395Z,100072.34
2019-03-10T05:51:42.070Z,100054.83
2019-03-10T05:54:11.727Z,100043.23
2019-03-10T05:56:41.382Z,100039.55
2019-03-10T05:59:11.058Z,100039.71
2019-03-10T06:01:40.731Z,100036.66
2019-03-10T06:04:10.404Z,100027.78
2019-03-10T06:06:40.080Z,100031.73
2019-03-10T06:09:09.823Z,100021.66
2019-03-10T06:11:39.475Z,100032.75
2019-03-10T06:14:09.194Z,100022.58
2019-03-10T06:16:38.862Z,100020.44
2019-03-10T06:19:08.594Z,100007.58
2019-03-10T06:21:38.343Z,100003.40
2019-03-10T06:24:08.006Z,99991.73
2019-03-10T06:26:37.654Z,99978.58
2019-03-10T06:29:07.335Z,99964.98
2019-03-10T06:31:36.985Z,99959.12
2019-03-10T06:34:06.640Z,99954.23
2019-03-10T06:36:36.290Z,99944.15
2019-03-10T06:39:07.149Z,99929.34
2019-03-10T06:41:36.898Z,99931.75
2019-03-10T06:44:06.477Z,99917.76
2019-03-10T06:46:36.137Z,99911.84
2019-03-10T06:49:05.811Z,99913.86
2019-03-10T06:51:35.466Z,99912.27
2019-03-10T06:54:05.317Z,99902.10
2019-03-10T06:56:35.054Z,99901.19
2019-03-10T06:59:04.939Z,99896.17
2019-03-10T07:01:34.610Z,99888.42
2019-03-10T07:04:05.165Z,99887.97
2019-03-10T07:06:35.600Z,99889.72
2019-03-10T07:09:05.945Z,99888.95
2019-03-10T07:11:35.950Z,99884.53
2019-03-10T07:14:05.581Z,99883.59
2019-03-10T07:16:35.279Z,99869.34
2019-03-10T07:19:04.937Z,99865.83
2019-03-10T07:21:34.613Z,99857.67
2019-03-10T07:24:04.893Z,99856.18
2019-03-10T07:26:34.806Z,99844.83
2019-03-10T07:29:27.099Z,99838.25
2019-03-10T07:32:14.175Z,99843.98
2019-03-10T07:35:08.873Z,99841.20
2019-03-10T07:37:55.978Z,99824.30
2019-03-10T07:40:50.467Z,99817.83
2019-03-10T07:43:25.039Z,99814.38
2019-03-10T07:46:22.680Z,99817.16
2019-03-10T07:49:08.597Z,99803.30
2019-03-10T07:51:43.644Z,99792.48
2019-03-10T07:54:22.738Z,99787.21
2019-03-10T07:57:02.229Z,99781.47
2019-03-10T07:59:49.647Z,99777.59
2019-03-10T08:02:37.237Z,99775.91
2019-03-10T08:05:20.233Z,99769.27
2019-03-10T08:07:54.944Z,99767.87
2019-03-10T08:10:44.765Z,99768.15
2019-03-10T08:13:28.577Z,99755.86
2019-03-10T08:16:20.037Z,99752.52
2019-03-10T08:19:08.728Z,99747.34
2019-03-10T08:22:06.550Z,99739.77
2019-03-10T08:24:54.330Z,99729.41
2019-03-10T08:28:01.853Z,99731.44
2019-03-10T08:30:47.236Z,99729.69
2019-03-10T08:33:30.102Z,99725.34
2019-03-10T08:36:17.261Z,99728.10
2019-03-10T08:38:54.585Z,99719.98
2019-03-10T08:41:41.167Z,99712.47
2019-03-10T08:44:32.923Z,99706.73
2019-03-10T08:47:08.234Z,99698.96
2019-03-10T08:49:46.662Z,99695.01
2019-03-10T08:52:20.579Z,99697.67
2019-03-10T08:55:15.178Z,99694.91
2019-03-10T08:58:02.671Z,99689.80
2019-03-10T09:00:44.841Z,99684.27
2019-03-10T09:03:21.284Z,99677.87
2019-03-10T09:06:12.732Z,99672.89
2019-03-10T09:08:58.667Z,99652.84
2019-03-10T09:11:46.089Z,99650.67
2019-03-10T09:14:33.086Z,99648.64
2019-03-10T09:17:10.135Z,99646.89
2019-03-10T09:19:54.675Z,99638.91
2019-03-10T09:22:37.141Z,99630.69
2019-03-10T09:25:24.593Z,99619.56
2019-03-10T09:28:19.460Z,99619.94
2019-03-10T09:31:10.895Z,99607.94
2019-03-10T09:33:48.732Z,99609.12
2019-03-10T09:36:49.726Z,99601.19
2019-03-10T09:39:37.077Z,99593.80
2019-03-10T09:42:21.695Z,99578.67
2019-03-10T09:45:12.416Z,99573.66
2019-03-10T09:47:53.002Z,99569.88
2019-03-10T09:50:48.454Z,99558.39
2019-03-10T09:53:35.157Z,99543.70
2019-03-10T09:56:23.002Z,99539.82
2019-03-10T09:59:14.595Z,99520.48
2019-03-10T10:01:59.468Z,99517.39
2019-03-10T10:04:46.854Z,99507.91
2019-03-10T10:07:37.195Z,99503.81
2019-03-10T10:10:17.431Z,99504.30
2019-03-10T10:12:59.821Z,99500.81
2019-03-10T10:15:48.331Z,99490.55
2019-03-10T10:18:29.319Z,99488.34
2019-03-10T10:21:09.901Z,99478.70
2019-03-10T10:23:49.263Z,99477.41
2019-03-10T10:26:50.109Z,99475.12
2019-03-10T10:29:36.664Z,99463.00
2019-03-10T10:32:12.792Z,99463.30
2019-03-10T10:34:51.642Z,99454.64
2019-03-10T10:37:26.556Z,99454.44
2019-03-10T10:40:14.159Z,99445.50
2019-03-10T10:43:08.866Z,99436.38
2019-03-10T10:45:56.189Z,99436.68
2019-03-10T10:48:50.697Z,99431.28
2019-03-10T10:51:38.051Z,99411.53
2019-03-10T10:54:18.504Z,99403.81
2019-03-10T10:57:07.280Z,99392.31
2019-03-10T10:59:57.376Z,99383.66
2019-03-10T11:02:45.060Z,99386.03
2019-03-10T11:05:37.821Z,99380.70
2019-03-10T11:08:24.012Z,99383.74
2019-03-10T11:11:11.189Z,99371.89
2019-03-10T11:13:58.531Z,99366.86
2019-03-10T11:16:38.264Z,99350.97
2019-03-10T11:19:18.322Z,99351.31
2019-03-10T11:21:57.538Z,99336.94
2019-03-10T11:24:33.110Z,99330.51
2019-03-10T11:27:21.787Z,99338.95
2019-03-10T11:30:04.045Z,99338.41
2019-03-10T11:32:52.702Z,99336.20
2019-03-10T11:35:49.177Z,99327.47
2019-03-10T11:38:37.884Z,99325.45
2019-03-10T11:41:38.660Z,99312.15
2019-03-10T11:44:19.993Z,99294.73
2019-03-10T11:46:59.149Z,99324.53
2019-03-10T11:49:34.805Z,99299.42
2019-03-10T11:52:13.369Z,99300.23
2019-03-10T11:55:07.232Z,99299.33
2019-03-10T11:57:48.355Z,99300.20
2019-03-10T12:00:35.508Z,99295.18
2019-03-10T12:03:18.820Z,99284.25
2019-03-10T12:06:00.814Z,99270.94
2019-03-10T12:08:55.580Z,99267.28
2019-03-10T12:11:25.318Z,99245.45
2019-03-10T12:13:54.997Z,99243.46
2019-03-10T12:16:24.662Z,99231.67
2019-03-10T12:18:54.322Z,99220.98
2019-03-10T12:21:25.061Z,99213.52
2019-03-10T12:23:54.718Z,99206.59
2019-03-10T12:26:24.391Z,99196.23
2019-03-10T12:28:54.274Z,99192.59
2019-03-10T12:31:23.931Z,99182.81
2019-03-10T12:33:53.585Z,99178.34
2019-03-10T12:36:23.327Z,99181.91
2019-03-10T12:38:53.063Z,99173.20
2019-03-10T12:41:22.747Z,99173.53
2019-03-10T12:43:52.650Z,99166.25
2019-03-10T12:46:22.301Z,99177.47
2019-03-10T12:48:51.951Z,99168.20
2019-03-10T12:51:21.636Z,99171.13
2019-03-10T12:53:51.281Z,99163.70
2019-03-10T12:56:21.233Z,99159.01
2019-03-10T12:58:50.895Z,99156.53
2019-03-10T13:01:20.538Z,99144.59
2019-03-10T13:03:58.408Z,99135.28
2019-03-10T13:06:21.634Z,99141.17
2019-03-10T13:08:52.354Z,99137.27
2019-03-10T13:11:22.087Z,99128.64
2019-03-10T13:13:52.003Z,99119.17
2019-03-10T13:16:21.651Z,99106.77
2019-03-10T13:18:51.335Z,99091.15
2019-03-10T13:21:21.054Z,99089.02
2019-03-10T13:23:50.705Z,99094.43
2019-03-10T13:26:20.375Z,99074.55
2019-03-10T13:28:50.412Z,99068.84
2019-03-10T13:31:20.077Z,99067.55
2019-03-10T13:33:50.019Z,99065.38
2019-03-10T13:36:19.770Z,99059.12
2019-03-10T13:38:49.441Z,99067.95
2019-03-10T13:41:19.140Z,99061.34
2019-03-10T13:43:49.049Z,99058.67
2019-03-10T13:46:30.017Z,99049.56
2019-03-10T13:49:01.097Z,99043.39
2019-03-10T13:51:30.907Z,99048.83
2019-03-10T13:54:05.349Z,99057.58
2019-03-10T13:56:35.183Z,99075.97
2019-03-10T13:59:05.320Z,99087.11
2019-03-10T14:01:35.227Z,99086.17
2019-03-10T14:04:05.145Z,99076.22
2019-03-10T14:06:35.795Z,99104.31
2019-03-10T14:09:08.133Z,99120.84
2019-03-10T14:11:38.136Z,99111.92
2019-03-10T14:14:07.784Z,99105.03
2019-03-10T14:16:37.459Z,99109.83
2019-03-10T14:19:07.348Z,99127.25
2019-03-10T14:21:36.999Z,99145.28
2019-03-10T14:24:06.835Z,99146.28
2019-03-10T14:26:36.495Z,99140.88
2019-03-10T14:29:06.158Z,99149.69
2019-03-10T14:31:35.822Z,99158.14
2019-03-10T14:34:05.549Z,99166.44
2019-03-10T14:36:35.478Z,99157.33
2019-03-10T14:39:07.170Z,99182.88
2019-03-10T14:41:38.683Z,99174.50
2019-03-10T14:44:08.382Z,99167.66
2019-03-10T14:46:38.043Z,99170.64
2019-03-10T14:49:07.875Z,99176.67
2019-03-10T14:51:42.952Z,99182.92
2019-03-10T14:54:12.602Z,99179.28
2019-03-10T14:56:42.524Z,99191.31
2019-03-10T14:59:12.222Z,99202.30
2019-03-10T15:01:42.929Z,99223.21
2019-03-10T15:04:12.597Z,99256.38
2019-03-10T15:06:42.270Z,99281.03
2019-03-10T15:09:12.949Z,99301.06
2019-03-10T15:11:42.857Z,99311.22
2019-03-10T15:14:12.523Z,99348.99
2019-03-10T15:16:42.261Z,99370.23
2019-03-10T15:19:12.258Z,99393.17
2019-03-10T15:21:41.986Z,99414.98
2019-03-10T15:24:11.648Z,99440.71
2019-03-10T15:26:45.513Z,99464.17
2019-03-10T15:29:12.695Z,99490.75
2019-03-10T15:31:42.591Z,99506.51
2019-03-10T15:34:12.330Z,99543.64
2019-03-10T15:36:42.011Z,99571.80
2019-03-10T15:39:12.643Z,99595.91
2019-03-10T15:41:42.364Z,99628.45
2019-03-10T15:44:12.005Z,99665.39
2019-03-10T15:46:41.665Z,99687.04
2019-03-10T15:49:11.334Z,99710.80
2019-03-10T15:51:41.249Z,99739.36
2019-03-10T15:54:10.908Z,99764.92
2019-03-10T15:56:40.826Z,99789.36
2019-03-10T15:59:10.528Z,99813.53
2019-03-10T16:01:40.129Z,99840.36
2019-03-10T16:04:17.699Z,99867.55
2019-03-10T16:06:48.042Z,99890.74
2019-03-10T16:09:17.797Z,99907.90
2019-03-10T16:11:47.479Z,99932.20
2019-03-10T16:14:17.142Z,99947.34
2019-03-10T16:16:46.809Z,99965.38
2019-03-10T16:19:16.474Z,99988.36
2019-03-10T16:21:46.148Z,100012.77
2019-03-10T16:24:15.824Z,100031.20
2019-03-10T16:26:45.491Z,100045.15
2019-03-10T16:31:54.262Z,100082.65
2019-03-10T16:34:23.932Z,100104.48
2019-03-10T16:36:53.582Z,100125.76
2019-03-10T16:39:23.342Z,100131.17
2019-03-10T16:41:53.645Z,100141.52
2019-03-10T16:44:23.324Z,100155.43
2019-03-10T16:46:52.983Z,100165.95
2019-03-10T16:49:22.640Z,100175.59
2019-03-10T16:51:52.314Z,100189.16
2019-03-10T16:54:21.991Z,100201.52
2019-03-10T16:56:51.655Z,100213.70
2019-03-10T16:59:21.607Z,100221.49
2019-03-10T17:01:51.399Z,100231.45
2019-03-10T17:04:21.067Z,100237.02
2019-03-10T17:06:50.730Z,100241.83
2019-03-10T17:09:20.733Z,100252.57
2019-03-10T17:11:50.494Z,100255.92
2019-03-10T17:14:20.151Z,100269.89
2019-03-10T17:16:49.831Z,100279.61
2019-03-10T17:19:19.521Z,100290.05
2019-03-10T17:21:49.462Z,100296.48
2019-03-10T17:24:19.119Z,100295.64
2019-03-10T17:26:49.461Z,100307.16
2019-03-10T17:29:19.115Z,100318.18
2019-03-10T17:31:48.936Z,100318.92
2019-03-10T17:34:18.618Z,100324.80
2019-03-10T17:36:48.272Z,100332.86
2019-03-10T17:39:18.924Z,100343.88
2019-03-10T17:41:48.852Z,100352.77
2019-03-10T17:44:18.509Z,100351.95
2019-03-10T17:46:48.189Z,100357.88
2019-03-10T17:49:17.851Z,100360.16
2019-03-10T17:51:47.517Z,100362.57
2019-03-10T17:54:17.272Z,100366.20
2019-03-10T17:56:47.904Z,100368.55
2019-03-10T17:59:17.851Z,100367.05
2019-03-10T18:01:48.508Z,100369.83
2019-03-10T18:04:18.324Z,100375.33
2019-03-10T18:06:48.074Z,100382.75
2019-03-10T18:09:17.754Z,100389.98
2019-03-10T18:11:47.431Z,100386.37
2019-03-10T18:14:17.084Z,100389.97
2019-03-10T18:16:46.761Z,100401.84
2019-03-10T18:19:16.425Z,100403.33
2019-03-10T18:21:46.097Z,100415.20
2019-03-10T18:24:15.759Z,100421.06
2019-03-10T18:26:45.422Z,100426.16
2019-03-10T18:29:15.361Z,100434.30
2019-03-10T18:31:45.025Z,100431.21
2019-03-10T18:34:14.962Z,100441.91
2019-03-10T18:36:44.624Z,100442.82
2019-03-10T18:39:14.374Z,100452.22
2019-03-10T18:41:44.125Z,100461.25
2019-03-10T18:44:13.863Z,100471.53
2019-03-10T18:46:43.671Z,100475.71
2019-03-10T18:49:13.343Z,100477.14
2019-03-10T18:51:43.022Z,100484.36
2019-03-10T18:54:12.933Z,100489.97
2019-03-10T18:56:42.595Z,100495.20
2019-03-10T18:59:12.374Z,100500.45
2019-03-10T19:01:42.107Z,100507.55
2019-03-10T19:04:11.771Z,100516.64
2019-03-10T19:06:41.447Z,100517.59
2019-03-10T19:09:11.110Z,100494.83
2019-03-10T19:11:41.103Z,100460.58
2019-03-10T19:14:10.757Z,100452.94
2019-03-10T19:16:40.686Z,100421.18
2019-03-10T19:19:10.347Z,100432.72
2019-03-10T19:21:40.012Z,100438.66
2019-03-10T19:24:09.828Z,100447.75
2019-03-10T19:26:39.561Z,100453.35
2019-03-10T19:29:09.241Z,100467.87
2019-03-10T19:31:38.907Z,100470.97
2019-03-10T19:34:08.575Z,100467.13
2019-03-10T19:36:38.481Z,100482.73
2019-03-10T19:39:08.236Z,100512.39
2019-03-10T19:41:39.761Z,100522.81
2019-03-10T19:44:09.429Z,100520.73
2019-03-10T19:46:39.149Z,100517.88
2019-03-10T19:49:10.899Z,100522.73
2019-03-10T19:51:41.663Z,100526.25
2019-03-10T19:54:11.579Z,100536.06
2019-03-10T19:56:41.340Z,100542.95
2019-03-10T19:59:11.004Z,100540.44
2019-03-10T20:01:40.810Z,100543.89
2019-03-10T20:04:11.186Z,100544.30
2019-03-10T20:06:40.870Z,100542.67
2019-03-10T20:09:10.532Z,100548.27
2019-03-10T20:11:40.885Z,100547.48
2019-03-10T20:14:10.577Z,100545.41
2019-03-10T20:16:40.327Z,100557.92
2019-03-10T20:19:10.990Z,100567.45
2019-03-10T20:21:40.675Z,100586.72
2019-03-10T20:24:10.361Z,100603.48
2019-03-10T20:26:40.345Z,100604.70
2019-03-10T20:29:10.088Z,100601.81
2019-03-10T20:31:40.024Z,100600.39
2019-03-10T20:34:09.779Z,100600.52
2019-03-10T20:36:40.670Z,100608.84
2019-03-10T20:39:10.354Z,100617.98
2019-03-10T20:41:40.220Z,100618.48
2019-03-10T20:44:09.959Z,100607.27
2019-03-10T20:46:39.622Z,100600.88
2019-03-10T20:49:10.230Z,100600.73
2019-03-10T20:51:39.959Z,100593.59
2019-03-10T20:54:09.744Z,100589.58
2019-03-10T20:56:39.403Z,100588.45
2019-03-10T20:59:09.238Z,100591.00
2019-03-10T21:01:38.920Z,100591.22
2019-03-10T21:04:08.677Z,100588.14
2019-03-10T21:06:38.597Z,100583.33
2019-03-10T21:09:08.593Z,100591.84
2019-03-10T21:11:39.321Z,100591.38
2019-03-10T21:14:09.011Z,100611.91
2019-03-10T21:16:38.677Z,100608.33
2019-03-10T21:19:08.684Z,100617.22
2019-03-10T21:21:38.837Z,100620.59
2019-03-10T21:24:08.777Z,100624.02
2019-03-10T21:26:38.437Z,100634.67
2019-03-10T21:29:08.103Z,100632.03
2019-03-10T21:31:38.510Z,100641.78
2019-03-10T21:34:08.162Z,100631.94
2019-03-10T21:36:39.051Z,100631.38
2019-03-10T21:39:08.746Z,100629.95
2019-03-10T21:41:38.785Z,100628.57
2019-03-10T21:44:08.739Z,100625.98
2019-03-10T21:46:38.407Z,100618.25
2019-03-10T21:49:08.068Z,100611.30
2019-03-10T21:51:37.772Z,100616.45
2019-03-10T21:54:07.428Z,100603.88
2019-03-10T21:56:37.117Z,100619.70
2019-03-10T21:59:06.774Z,100631.31
2019-03-10T22:01:36.446Z,100621.43
2019-03-10T22:04:06.358Z,100631.75
2019-03-10T22:06:36.031Z,100629.17
2019-03-10T22:09:06.737Z,100629.30
2019-03-10T22:11:38.028Z,100638.89
2019-03-10T22:14:07.697Z,100629.96
2019-03-10T22:16:37.381Z,100627.88
2019-03-10T22:19:07.012Z,100628.80
2019-03-10T22:21:37.077Z,100629.74
2019-03-10T22:24:06.699Z,100623.30
2019-03-10T22:26:36.364Z,100630.31
2019-03-10T22:29:06.065Z,100628.73
2019-03-10T22:31:35.791Z,100618.86
2019-03-10T22:34:05.595Z,100621.94
2019-03-10T22:36:35.286Z,100615.94
2019-03-10T22:39:07.340Z,100614.27
2019-03-10T22:41:37.160Z,100613.86
2019-03-10T22:44:06.823Z,100616.94
2019-03-10T22:46:36.562Z,100619.52
2019-03-10T22:49:06.242Z,100622.53
2019-03-10T22:51:35.896Z,100623.89
2019-03-10T22:54:05.582Z,100620.45
2019-03-10T22:56:35.245Z,100619.67
2019-03-10T22:59:05.195Z,100615.37
2019-03-10T23:01:34.897Z,100615.27
2019-03-10T23:04:04.787Z,100606.28
2019-03-10T23:06:34.444Z,100606.75
2019-03-10T23:09:06.378Z,100600.74
2019-03-10T23:11:37.665Z,100601.47
2019-03-10T23:14:07.402Z,100593.67
2019-03-10T23:16:37.328Z,100597.95
2019-03-10T23:19:06.984Z,100590.09
2019-03-10T23:21:37.615Z,100591.06
2019-03-10T23:24:07.293Z,100585.84
2019-03-10T23:26:37.190Z,100591.38
2019-03-10T23:29:06.880Z,100590.49
2019-03-10T23:31:36.541Z,100589.20
2019-03-10T23:34:06.262Z,100593.95
2019-03-10T23:36:35.943Z,100588.36
2019-03-10T23:39:06.600Z,100584.55
2019-03-10T23:41:37.852Z,100583.27
2019-03-10T23:44:07.520Z,100573.02
2019-03-10T23:46:37.339Z,100583.64
2019-03-10T23:49:07.000Z,100585.34
2019-03-10T23:51:36.746Z,100577.19
2019-03-10T23:54:06.408Z,100586.63
2019-03-10T23:56:36.052Z,100584.48
2019-03-10T23:59:05.735Z,100578.10
